createdAt,value
2019-03-10T00:01:39.073Z,19.57
2019-03-10T00:04:07.808Z,17.23
2019-03-10T00:06:36.151Z,16.20
2019-03-10T00:09:05.455Z,22.33
2019-03-10T00:11:33.826Z,12.90
2019-03-10T00:14:02.259Z,15.00
2019-03-10T00:16:30.859Z,16.87
2019-03-10T00:18:59.296Z,18.40
2019-03-10T00:21:27.723Z,16.70
2019-03-10T00:23:56.210Z,23.97
2019-03-10T00:26:24.609Z,20.40
2019-03-10T00:28:53.075Z,17.17
2019-03-10T00:31:21.595Z,23.23
2019-03-10T00:33:49.997Z,17.90
2019-03-10T00:36:18.465Z,14.00
2019-03-10T00:38:51.925Z,19.97
2019-03-10T00:41:28.583Z,17.53
2019-03-10T00:44:15.002Z,19.73
2019-03-10T00:46:53.341Z,18.60
2019-03-10T00:49:59.317Z,26.37
2019-03-10T00:52:35.920Z,17.67
2019-03-10T00:55:04.459Z,21.40
2019-03-10T00:57:32.810Z,24.87
2019-03-10T01:00:01.324Z,15.30
2019-03-10T01:02:29.738Z,20.03
2019-03-10T01:04:58.168Z,23.43
2019-03-10T01:07:26.617Z,12.10
2019-03-10T01:09:55.103Z,17.83
2019-03-10T01:12:24.491Z,20.30
2019-03-10T01:14:52.977Z,19.00
2019-03-10T01:17:21.715Z,17.73
2019-03-10T01:19:50.122Z,20.93
2019-03-10T01:22:18.568Z,18.63
2019-03-10T01:24:46.997Z,18.37
2019-03-10T01:27:15.407Z,15.67
2019-03-10T01:29:44.123Z,15.60
2019-03-10T01:32:31.688Z,17.30
2019-03-10T01:35:05.274Z,15.43
2019-03-10T01:37:33.783Z,19.60
2019-03-10T01:40:02.194Z,19.87
2019-03-10T01:42:30.829Z,21.13
2019-03-10T01:44:59.262Z,19.47
2019-03-10T01:47:27.648Z,18.63
2019-03-10T01:50:15.247Z,17.30
2019-03-10T01:52:43.680Z,29.73
2019-03-10T01:55:12.292Z,17.67
2019-03-10T01:57:40.663Z,23.40
2019-03-10T02:00:10.136Z,16.13
2019-03-10T02:02:38.651Z,16.83
2019-03-10T02:05:07.426Z,22.87
2019-03-10T02:07:36.983Z,19.17
2019-03-10T02:10:06.191Z,25.50
2019-03-10T02:12:34.543Z,26.80
2019-03-10T02:15:03.022Z,24.93
2019-03-10T02:17:31.521Z,25.73
2019-03-10T02:20:01.008Z,28.50
2019-03-10T02:22:29.383Z,31.03
2019-03-10T02:24:57.871Z,28.00
2019-03-10T02:27:26.299Z,22.67
2019-03-10T02:29:54.647Z,28.10
2019-03-10T02:32:23.066Z,22.80
2019-03-10T02:34:51.602Z,17.17
2019-03-10T02:37:19.997Z,21.43
2019-03-10T02:39:48.366Z,32.23
2019-03-10T02:42:17.104Z,29.53
2019-03-10T02:44:45.506Z,29.90
2019-03-10T02:47:13.840Z,34.83
2019-03-10T02:49:42.525Z,32.57
2019-03-10T02:52:10.904Z,27.37
2019-03-10T02:54:39.323Z,27.63
2019-03-10T02:57:07.733Z,26.03
2019-03-10T02:59:37.207Z,32.83
2019-03-10T03:02:05.702Z,24.33
2019-03-10T03:04:34.165Z,29.60
2019-03-10T03:07:02.632Z,37.07
2019-03-10T03:09:31.099Z,32.37
2019-03-10T03:11:59.501Z,36.27
2019-03-10T03:14:27.922Z,28.73
2019-03-10T03:16:56.350Z,37.40
2019-03-10T03:19:24.752Z,27.40
2019-03-10T03:21:53.319Z,29.17
2019-03-10T03:24:21.812Z,38.63
2019-03-10T03:26:50.166Z,39.40
2019-03-10T03:29:18.592Z,34.60
2019-03-10T03:31:46.940Z,32.50
2019-03-10T03:34:15.342Z,31.07
2019-03-10T03:36:43.780Z,26.13
2019-03-10T03:39:16.559Z,25.53
2019-03-10T03:41:49.973Z,28.60
2019-03-10T03:44:18.325Z,29.10
2019-03-10T03:46:47.795Z,36.83
2019-03-10T03:49:16.175Z,28.07
2019-03-10T03:51:44.508Z,22.67
2019-03-10T03:54:12.891Z,31.73
2019-03-10T03:56:41.274Z,23.43
2019-03-10T03:59:09.617Z,29.60
2019-03-10T04:01:44.847Z,28.50
2019-03-10T04:04:13.325Z,26.33
2019-03-10T04:06:41.904Z,33.03
2019-03-10T04:09:10.352Z,22.50
2019-03-10T04:11:38.698Z,27.40
2019-03-10T04:14:07.137Z,28.63
2019-03-10T04:16:35.496Z,29.80
2019-03-10T04:19:03.924Z,24.67
2019-03-10T04:21:32.340Z,25.27
2019-03-10T04:24:00.716Z,25.13
2019-03-10T04:26:29.520Z,19.87
2019-03-10T04:28:57.947Z,25.63
2019-03-10T04:31:26.397Z,22.43
2019-03-10T04:33:54.732Z,30.10
2019-03-10T04:36:29.096Z,23.37
2019-03-10T04:38:57.599Z,24.43
2019-03-10T04:41:25.944Z,25.30
2019-03-10T04:43:54.418Z,26.77
2019-03-10T04:46:22.784Z,23.80
2019-03-10T04:48:51.275Z,19.07
2019-03-10T04:51:19.700Z,27.10
2019-03-10T04:53:48.111Z,41.60
2019-03-10T04:56:27.984Z,25.50
2019-03-10T04:58:56.323Z,28.93
2019-03-10T05:01:24.659Z,25.00
2019-03-10T05:03:52.999Z,38.57
2019-03-10T05:06:21.342Z,25.77
2019-03-10T05:08:49.690Z,27.43
2019-03-10T05:11:18.175Z,23.27
2019-03-10T05:13:46.533Z,38.83
2019-03-10T05:16:16.989Z,34.63
2019-03-10T05:18:45.322Z,37.03
2019-03-10T05:21:13.802Z,39.40
2019-03-10T05:23:43.021Z,34.33
2019-03-10T05:26:11.787Z,29.53
2019-03-10T05:28:42.014Z,25.50
2019-03-10T05:31:11.504Z,28.60
2019-03-10T05:33:39.831Z,24.80
2019-03-10T05:36:08.270Z,29.80
2019-03-10T05:38:36.679Z,26.77
2019-03-10T05:41:05.268Z,23.87
2019-03-10T05:43:33.619Z,28.23
2019-03-10T05:46:02.107Z,28.30
2019-03-10T05:48:31.535Z,24.20
2019-03-10T05:50:59.976Z,24.43
2019-03-10T05:53:28.407Z,25.53
2019-03-10T05:55:56.844Z,26.43
2019-03-10T05:58:25.288Z,30.80
2019-03-10T06:00:53.984Z,25.47
2019-03-10T06:03:22.411Z,28.27
2019-03-10T06:05:51.114Z,31.17
2019-03-10T06:08:19.522Z,22.83
2019-03-10T06:10:48.035Z,27.40
2019-03-10T06:13:16.409Z,26.90
2019-03-10T06:15:44.774Z,25.63
2019-03-10T06:18:14.183Z,25.63
2019-03-10T06:20:42.828Z,26.33
2019-03-10T06:23:11.258Z,36.37
2019-03-10T06:25:39.691Z,25.80
2019-03-10T06:28:08.209Z,19.63
2019-03-10T06:30:36.773Z,30.13
2019-03-10T06:33:05.315Z,22.17
2019-03-10T06:35:33.819Z,29.77
2019-03-10T06:38:02.217Z,29.23
2019-03-10T06:40:32.507Z,27.20
2019-03-10T06:43:01.047Z,29.20
2019-03-10T06:45:29.471Z,26.90
2019-03-10T06:47:57.981Z,35.07
2019-03-10T06:50:26.461Z,33.00
2019-03-10T06:52:55.000Z,20.27
2019-03-10T06:55:23.560Z,25.30
2019-03-10T06:57:52.008Z,16.43
2019-03-10T07:00:20.440Z,18.77
2019-03-10T07:02:48.927Z,16.27
2019-03-10T07:05:17.731Z,20.67
2019-03-10T07:07:46.224Z,17.20
2019-03-10T07:10:14.716Z,16.80
2019-03-10T07:12:43.132Z,19.87
2019-03-10T07:15:11.563Z,22.33
2019-03-10T07:17:39.919Z,21.33
2019-03-10T07:20:09.915Z,15.50
2019-03-10T07:22:38.372Z,18.30
2019-03-10T07:25:06.776Z,17.33
2019-03-10T07:27:53.031Z,8.33
2019-03-10T07:30:38.317Z,8.27
2019-03-10T07:33:23.968Z,10.23
2019-03-10T07:36:05.546Z,8.27
2019-03-10T07:39:13.944Z,10.17
2019-03-10T07:41:48.323Z,6.93
2019-03-10T07:44:35.877Z,10.60
2019-03-10T07:47:20.264Z,9.67
2019-03-10T07:50:19.919Z,13.13
2019-03-10T07:53:16.534Z,6.30
2019-03-10T07:56:02.915Z,12.50
2019-03-10T07:58:49.556Z,16.27
2019-03-10T08:01:40.199Z,13.20
2019-03-10T08:04:40.193Z,9.47
2019-03-10T08:07:23.606Z,8.50
2019-03-10T08:10:00.436Z,12.03
2019-03-10T08:12:41.663Z,7.40
2019-03-10T08:15:36.800Z,9.80
2019-03-10T08:18:17.671Z,8.80
2019-03-10T08:21:17.190Z,10.77
2019-03-10T08:23:54.060Z,13.93
2019-03-10T08:26:35.873Z,10.13
2019-03-10T08:29:12.376Z,7.40
2019-03-10T08:32:18.112Z,7.57
2019-03-10T08:34:59.623Z,10.10
2019-03-10T08:37:47.708Z,11.57
2019-03-10T08:40:34.323Z,8.60
2019-03-10T08:43:25.819Z,8.20
2019-03-10T08:46:20.853Z,7.40
2019-03-10T08:49:07.117Z,8.40
2019-03-10T08:51:49.410Z,12.93
2019-03-10T08:54:23.940Z,15.63
2019-03-10T08:57:06.571Z,9.27
2019-03-10T08:59:53.819Z,11.23
2019-03-10T09:03:00.094Z,9.60
2019-03-10T09:05:49.478Z,9.30
2019-03-10T09:08:49.335Z,11.10
2019-03-10T09:11:47.120Z,10.93
2019-03-10T09:14:34.525Z,11.27
2019-03-10T09:17:20.723Z,9.67
2019-03-10T09:19:57.199Z,12.27
2019-03-10T09:22:38.745Z,8.43
2019-03-10T09:25:39.828Z,6.77
2019-03-10T09:28:30.116Z,10.90
2019-03-10T09:31:21.803Z,8.47
2019-03-10T09:33:58.130Z,7.20
2019-03-10T09:36:51.636Z,7.87
2019-03-10T09:39:48.432Z,9.13
2019-03-10T09:42:41.903Z,7.07
2019-03-10T09:45:35.314Z,8.00
2019-03-10T09:48:18.375Z,4.10
2019-03-10T09:51:04.775Z,5.13
2019-03-10T09:53:51.198Z,4.87
2019-03-10T09:56:31.309Z,7.07
2019-03-10T09:59:08.379Z,5.57
2019-03-10T10:01:55.994Z,5.47
2019-03-10T10:04:42.512Z,5.77
2019-03-10T10:07:45.515Z,4.37
2019-03-10T10:10:30.399Z,7.87
2019-03-10T10:13:23.864Z,5.27
2019-03-10T10:15:58.871Z,5.07
2019-03-10T10:18:36.890Z,6.77
2019-03-10T10:21:16.137Z,5.53
2019-03-10T10:24:02.036Z,4.83
2019-03-10T10:26:57.470Z,6.50
2019-03-10T10:29:51.375Z,11.27
2019-03-10T10:32:42.254Z,8.57
2019-03-10T10:35:29.307Z,7.47
2019-03-10T10:38:26.452Z,8.07
2019-03-10T10:41:17.453Z,12.83
2019-03-10T10:43:57.192Z,10.07
2019-03-10T10:46:51.712Z,11.23
2019-03-10T10:49:38.182Z,13.47
2019-03-10T10:52:18.617Z,12.50
2019-03-10T10:54:58.238Z,19.97
2019-03-10T10:57:34.583Z,16.87
2019-03-10T11:00:26.656Z,18.17
2019-03-10T11:03:12.212Z,15.33
2019-03-10T11:06:02.932Z,14.13
2019-03-10T11:09:03.089Z,15.27
2019-03-10T11:11:53.589Z,17.37
2019-03-10T11:15:00.339Z,17.33
2019-03-10T11:18:08.983Z,20.27
2019-03-10T11:20:48.508Z,15.87
2019-03-10T11:23:33.196Z,21.47
2019-03-10T11:26:23.668Z,23.13
2019-03-10T11:29:20.404Z,20.13
2019-03-10T11:32:03.484Z,20.97
2019-03-10T11:34:59.928Z,18.23
2019-03-10T11:37:46.156Z,20.03
2019-03-10T11:40:25.368Z,19.33
2019-03-10T11:43:11.588Z,21.93
2019-03-10T11:45:55.957Z,19.80
2019-03-10T11:48:46.588Z,17.60
2019-03-10T11:51:43.269Z,16.60
2019-03-10T11:54:26.610Z,13.87
2019-03-10T11:57:12.666Z,13.23
2019-03-10T11:59:46.621Z,20.93
2019-03-10T12:02:40.611Z,15.57
2019-03-10T12:05:34.784Z,11.83
2019-03-10T12:08:27.762Z,15.83
2019-03-10T12:10:56.334Z,10.87
2019-03-10T12:13:24.831Z,10.00
2019-03-10T12:15:53.396Z,12.03
2019-03-10T12:18:21.900Z,14.73
2019-03-10T12:20:50.466Z,14.33
2019-03-10T12:23:19.002Z,12.30
2019-03-10T12:25:47.688Z,7.60
2019-03-10T12:28:16.136Z,13.60
2019-03-10T12:30:44.594Z,10.47
2019-03-10T12:33:13.144Z,16.70
2019-03-10T12:35:41.662Z,16.33
2019-03-10T12:38:10.216Z,18.47
2019-03-10T12:40:38.770Z,13.60
2019-03-10T12:43:07.223Z,11.37
2019-03-10T12:45:35.797Z,7.83
2019-03-10T12:48:04.316Z,11.97
2019-03-10T12:50:32.701Z,12.67
2019-03-10T12:53:01.265Z,13.40
2019-03-10T12:55:29.935Z,13.07
2019-03-10T12:57:58.737Z,15.00
2019-03-10T13:00:27.364Z,15.60
2019-03-10T13:02:55.885Z,15.97
2019-03-10T13:05:24.391Z,18.27
2019-03-10T13:07:52.885Z,18.23
2019-03-10T13:10:21.458Z,14.10
2019-03-10T13:12:49.992Z,15.17
2019-03-10T13:15:18.463Z,22.70
2019-03-10T13:17:46.912Z,17.13
2019-03-10T13:20:15.373Z,15.17
2019-03-10T13:22:43.893Z,23.97
2019-03-10T13:25:12.607Z,20.23
2019-03-10T13:27:41.275Z,16.97
2019-03-10T13:30:10.036Z,17.37
2019-03-10T13:32:39.658Z,13.47
2019-03-10T13:35:08.336Z,19.13
2019-03-10T13:37:36.973Z,16.63
2019-03-10T13:40:05.692Z,12.37
2019-03-10T13:42:34.197Z,13.17
2019-03-10T13:45:02.670Z,9.27
2019-03-10T13:47:31.086Z,10.50
2019-03-10T13:49:59.581Z,11.77
2019-03-10T13:52:28.346Z,13.77
2019-03-10T13:54:57.054Z,11.67
2019-03-10T13:57:25.520Z,9.37
2019-03-10T13:59:54.048Z,13.70
2019-03-10T14:02:22.589Z,12.23
2019-03-10T14:04:51.119Z,9.43
2019-03-10T14:07:19.689Z,12.73
2019-03-10T14:09:48.277Z,8.43
2019-03-10T14:12:16.806Z,11.70
2019-03-10T14:14:45.247Z,5.97
2019-03-10T14:17:13.872Z,7.83
2019-03-10T14:19:42.267Z,8.23
2019-03-10T14:22:10.661Z,12.10
2019-03-10T14:24:39.183Z,12.47
2019-03-10T14:27:07.653Z,5.27
2019-03-10T14:29:36.091Z,10.20
2019-03-10T14:32:04.798Z,8.37
2019-03-10T14:34:33.238Z,11.83
2019-03-10T14:37:01.772Z,7.47
2019-03-10T14:39:30.272Z,13.97
2019-03-10T14:41:58.728Z,6.57
2019-03-10T14:44:27.198Z,11.63
2019-03-10T14:46:55.739Z,4.83
2019-03-10T14:49:24.288Z,8.07
2019-03-10T14:51:52.726Z,10.10
2019-03-10T14:54:25.270Z,8.20
2019-03-10T14:56:53.798Z,5.70
2019-03-10T14:59:22.292Z,8.83
2019-03-10T15:01:50.903Z,9.97
2019-03-10T15:04:19.433Z,4.20
2019-03-10T15:06:47.952Z,7.27
2019-03-10T15:09:16.481Z,8.93
2019-03-10T15:11:45.022Z,6.67
2019-03-10T15:14:13.477Z,6.70
2019-03-10T15:16:41.956Z,8.50
2019-03-10T15:19:12.132Z,7.57
2019-03-10T15:21:40.741Z,10.67
2019-03-10T15:24:09.493Z,11.10
2019-03-10T15:26:45.755Z,4.90
2019-03-10T15:29:08.184Z,6.87
2019-03-10T15:31:36.664Z,9.13
2019-03-10T15:34:05.068Z,6.30
2019-03-10T15:36:33.569Z,8.57
2019-03-10T15:39:02.155Z,5.70
2019-03-10T15:41:30.610Z,4.83
2019-03-10T15:43:59.060Z,4.07
2019-03-10T15:46:27.570Z,8.83
2019-03-10T15:48:55.977Z,4.87
2019-03-10T15:51:24.457Z,3.67
2019-03-10T15:53:52.916Z,3.70
2019-03-10T15:56:21.575Z,2.77
2019-03-10T15:58:50.030Z,8.37
2019-03-10T16:01:18.573Z,3.37
2019-03-10T16:03:47.063Z,2.77
2019-03-10T16:06:15.648Z,2.47
2019-03-10T16:08:44.254Z,4.33
2019-03-10T16:11:12.919Z,1.50
2019-03-10T16:13:41.498Z,1.33
2019-03-10T16:16:10.108Z,2.90
2019-03-10T16:18:38.679Z,1.67
2019-03-10T16:21:07.098Z,1.07
2019-03-10T16:23:35.556Z,1.30
2019-03-10T16:26:04.252Z,1.30
2019-03-10T16:28:32.824Z,1.10
2019-03-10T16:31:01.216Z,1.10
2019-03-10T16:33:30.088Z,1.00
2019-03-10T16:35:59.498Z,0.70
2019-03-10T16:38:28.081Z,0.73
2019-03-10T16:40:56.789Z,1.40
2019-03-10T16:43:25.393Z,0.40
2019-03-10T16:49:04.524Z,0.70
2019-03-10T16:51:33.126Z,0.50
2019-03-10T16:54:01.501Z,1.63
2019-03-10T16:56:32.905Z,1.07
2019-03-10T16:59:01.632Z,0.70
2019-03-10T17:01:31.409Z,0.83
2019-03-10T17:03:59.934Z,0.60
2019-03-10T17:06:28.484Z,1.07
2019-03-10T17:08:57.180Z,0.80
2019-03-10T17:11:25.740Z,1.10
2019-03-10T17:14:02.144Z,1.30
2019-03-10T17:16:30.718Z,1.57
2019-03-10T17:18:59.542Z,1.40
2019-03-10T17:21:28.017Z,2.10
2019-03-10T17:23:56.424Z,2.63
2019-03-10T17:26:24.816Z,1.77
2019-03-10T17:28:53.531Z,1.87
2019-03-10T17:31:22.001Z,1.97
2019-03-10T17:33:50.461Z,1.90
2019-03-10T17:36:19.031Z,1.70
2019-03-10T17:38:47.476Z,1.80
2019-03-10T17:41:15.950Z,1.60
2019-03-10T17:43:44.545Z,1.67
2019-03-10T17:46:13.080Z,1.50
2019-03-10T17:48:42.722Z,1.80
2019-03-10T17:51:11.375Z,2.40
2019-03-10T17:53:41.781Z,1.53
2019-03-10T17:56:10.170Z,1.40
2019-03-10T17:58:38.775Z,2.00
2019-03-10T18:01:07.344Z,2.50
2019-03-10T18:03:35.800Z,1.83
2019-03-10T18:06:04.455Z,2.50
2019-03-10T18:08:33.049Z,3.17
2019-03-10T18:11:01.531Z,2.77
2019-03-10T18:13:30.063Z,3.10
2019-03-10T18:15:58.520Z,3.50
2019-03-10T18:18:26.996Z,5.20
2019-03-10T18:20:55.521Z,5.17
2019-03-10T18:23:43.059Z,6.63
2019-03-10T18:26:18.279Z,7.07
2019-03-10T18:28:46.751Z,6.63
2019-03-10T18:31:15.224Z,6.80
2019-03-10T18:33:43.591Z,7.03
2019-03-10T18:36:12.083Z,8.20
2019-03-10T18:38:40.538Z,7.17
2019-03-10T18:41:08.911Z,7.43
2019-03-10T18:43:37.263Z,7.50
2019-03-10T18:46:05.703Z,7.80
2019-03-10T18:48:34.131Z,8.90
2019-03-10T18:51:04.949Z,7.97
2019-03-10T18:53:34.422Z,7.40
2019-03-10T18:56:02.852Z,7.57
2019-03-10T18:58:31.427Z,5.97
2019-03-10T19:00:59.980Z,5.73
2019-03-10T19:03:34.223Z,5.63
2019-03-10T19:06:02.655Z,5.80
2019-03-10T19:08:33.283Z,7.93
2019-03-10T19:11:01.754Z,5.83
2019-03-10T19:13:32.347Z,5.80
2019-03-10T19:16:00.691Z,5.20
2019-03-10T19:18:29.588Z,3.87
2019-03-10T19:21:00.035Z,3.57
2019-03-10T19:23:28.591Z,3.87
2019-03-10T19:26:00.194Z,4.37
2019-03-10T19:28:28.808Z,5.00
2019-03-10T19:30:59.674Z,5.27
2019-03-10T19:33:28.319Z,4.80
2019-03-10T19:35:56.786Z,4.27
2019-03-10T19:38:27.212Z,4.20
2019-03-10T19:40:55.761Z,4.33
2019-03-10T19:43:24.321Z,5.23
2019-03-10T19:45:52.868Z,4.03
2019-03-10T19:48:21.303Z,3.03
2019-03-10T19:50:49.795Z,3.40
2019-03-10T19:53:18.235Z,3.10
2019-03-10T19:55:46.864Z,2.00
2019-03-10T19:58:15.406Z,1.77
2019-03-10T20:00:43.899Z,1.43
2019-03-10T20:03:12.516Z,1.57
2019-03-10T20:05:41.033Z,1.50
2019-03-10T20:08:09.933Z,1.60
2019-03-10T20:10:44.311Z,2.40
2019-03-10T20:13:13.968Z,1.40
2019-03-10T20:15:42.725Z,2.30
2019-03-10T20:18:11.174Z,1.13
2019-03-10T20:20:39.883Z,1.40
2019-03-10T20:23:08.778Z,1.30
2019-03-10T20:25:37.344Z,2.23
2019-03-10T20:28:05.967Z,1.30
2019-03-10T20:30:39.115Z,1.70
2019-03-10T20:33:07.977Z,1.37
2019-03-10T20:35:36.359Z,1.30
2019-03-10T20:38:04.994Z,2.17
2019-03-10T20:40:33.661Z,3.70
2019-03-10T20:43:02.022Z,3.40
2019-03-10T20:45:30.523Z,2.67
2019-03-10T20:47:58.935Z,3.27
2019-03-10T20:50:27.279Z,3.50
2019-03-10T20:52:56.303Z,5.10
2019-03-10T20:55:24.933Z,4.13
2019-03-10T20:57:56.074Z,4.53
2019-03-10T21:00:24.633Z,4.33
2019-03-10T21:02:53.067Z,4.00
2019-03-10T21:05:23.767Z,5.30
2019-03-10T21:07:52.203Z,6.90
2019-03-10T21:10:21.369Z,5.33
2019-03-10T21:12:49.889Z,5.40
2019-03-10T21:15:21.476Z,4.63
2019-03-10T21:17:52.223Z,7.03
2019-03-10T21:20:24.438Z,5.00
2019-03-10T21:22:55.260Z,6.93
2019-03-10T21:25:26.704Z,6.17
2019-03-10T21:27:55.563Z,4.93
2019-03-10T21:30:30.073Z,3.60
2019-03-10T21:32:59.597Z,4.00
2019-03-10T21:35:34.979Z,3.50
2019-03-10T21:38:13.934Z,6.07
2019-03-10T21:40:42.885Z,2.60
2019-03-10T21:43:14.307Z,3.17
2019-03-10T21:45:43.284Z,4.13
2019-03-10T21:48:12.846Z,3.37
2019-03-10T21:50:45.159Z,7.10
2019-03-10T21:53:13.659Z,4.27
2019-03-10T21:55:44.517Z,5.80
2019-03-10T21:58:13.132Z,7.47
2019-03-10T22:00:44.279Z,9.53
2019-03-10T22:03:13.808Z,9.93
2019-03-10T22:05:44.923Z,7.10
2019-03-10T22:08:13.430Z,4.40
2019-03-10T22:10:45.105Z,6.17
2019-03-10T22:13:13.528Z,9.97
2019-03-10T22:15:42.266Z,7.77
2019-03-10T22:18:18.102Z,7.10
2019-03-10T22:20:47.664Z,7.57
2019-03-10T22:23:16.107Z,9.20
2019-03-10T22:25:44.664Z,9.87
2019-03-10T22:28:15.568Z,7.93
2019-03-10T22:30:43.999Z,8.50
2019-03-10T22:33:12.703Z,7.63
2019-03-10T22:35:41.465Z,6.80
2019-03-10T22:38:10.227Z,9.00
2019-03-10T22:40:41.437Z,7.13
2019-03-10T22:43:10.607Z,7.50
2019-03-10T22:45:39.156Z,10.70
2019-03-10T22:48:10.087Z,10.23
2019-03-10T22:50:38.595Z,9.53
2019-03-10T22:53:06.987Z,7.80
2019-03-10T22:55:38.343Z,9.93
2019-03-10T22:58:06.927Z,8.53
2019-03-10T23:00:46.732Z,6.97
2019-03-10T23:03:16.963Z,7.50
2019-03-10T23:05:45.456Z,12.37
2019-03-10T23:08:14.016Z,9.77
2019-03-10T23:10:42.542Z,8.50
2019-03-10T23:13:10.959Z,7.63
2019-03-10T23:15:42.180Z,10.13
2019-03-10T23:18:10.636Z,11.87
2019-03-10T23:20:39.117Z,12.27
2019-03-10T23:23:07.567Z,10.53
2019-03-10T23:25:39.076Z,9.53
2019-03-10T23:28:07.624Z,12.87
2019-03-10T23:30:36.117Z,10.87
2019-03-10T23:33:06.776Z,8.83
2019-03-10T23:35:35.292Z,12.37
2019-03-10T23:38:03.796Z,8.97
2019-03-10T23:40:32.184Z,7.13
2019-03-10T23:43:01.044Z,10.77
2019-03-10T23:45:32.556Z,17.20
2019-03-10T23:48:01.075Z,6.63
2019-03-10T23:50:33.218Z,8.27
2019-03-10T23:53:01.837Z,5.47
2019-03-10T23:55:30.189Z,7.73
2019-03-10T23:58:00.472Z,8.33
